sensor_id;sensor_type;location;lat;lon;timestamp;temperature;humidity
42615;DHT22;28754;47.700;7.924;2023-07-29T00:01:51;17.20;99.90
42615;DHT22;28754;47.700;7.924;2023-07-29T00:04:40;17.20;99.90
42615;DHT22;28754;47.700;7.924;2023-07-29T00:07:26;17.20;99.90
42615;DHT22;28754;47.700;7.924;2023-07-29T00:10:13;17.10;99.90
42615;DHT22;28754;47.700;7.924;2023-07-29T00:13:00;17.20;99.90
42615;DHT22;28754;47.700;7.924;2023-07-29T00:15:46;17.20;99.90
42615;DHT22;28754;47.700;7.924;2023-07-29T00:18:33;17.30;99.90
42615;DHT22;28754;47.700;7.924;2023-07-29T00:21:20;17.30;99.90
42615;DHT22;28754;47.700;7.924;2023-07-29T00:24:06;17.30;99.90
42615;DHT22;28754;47.700;7.924;2023-07-29T00:26:53;17.20;99.90
42615;DHT22;28754;47.700;7.924;2023-07-29T00:29:41;17.20;99.90
42615;DHT22;28754;47.700;7.924;2023-07-29T00:32:29;17.20;99.90
42615;DHT22;28754;47.700;7.924;2023-07-29T00:35:17;17.20;99.90
42615;DHT22;28754;47.700;7.924;2023-07-29T00:38:03;17.20;99.90
42615;DHT22;28754;47.700;7.924;2023-07-29T00:40:50;17.30;99.90
42615;DHT22;28754;47.700;7.924;2023-07-29T00:43:37;17.30;99.90
42615;DHT22;28754;47.700;7.924;2023-07-29T00:46:24;17.40;99.90
42615;DHT22;28754;47.700;7.924;2023-07-29T00:49:11;17.40;99.90
42615;DHT22;28754;47.700;7.924;2023-07-29T00:51:58;17.50;99.90
42615;DHT22;28754;47.700;7.924;2023-07-29T00:54:45;17.50;99.90
42615;DHT22;28754;47.700;7.924;2023-07-29T00:57:33;17.50;99.90
42615;DHT22;28754;47.700;7.924;2023-07-29T01:00:20;17.40;99.90
42615;DHT22;28754;47.700;7.924;2023-07-29T01:03:08;17.40;99.90
42615;DHT22;28754;47.700;7.924;2023-07-29T01:06:12;17.30;99.90
42615;DHT22;28754;47.700;7.924;2023-07-29T01:09:30;17.30;99.90
42615;DHT22;28754;47.700;7.924;2023-07-29T01:18:47;17.40;99.90
42615;DHT22;28754;47.700;7.924;2023-07-29T01:21:36;17.40;99.90
42615;DHT22;28754;47.700;7.924;2023-07-29T01:24:24;17.50;99.90
42615;DHT22;28754;47.700;7.924;2023-07-29T01:27:11;17.50;99.90
42615;DHT22;28754;47.700;7.924;2023-07-29T01:29:58;17.50;99.90
42615;DHT22;28754;47.700;7.924;2023-07-29T01:32:55;17.60;99.90
42615;DHT22;28754;47.700;7.924;2023-07-29T01:35:58;17.60;99.90
42615;DHT22;28754;47.700;7.924;2023-07-29T01:38:49;17.70;99.90
42615;DHT22;28754;47.700;7.924;2023-07-29T01:41:39;17.70;99.90
42615;DHT22;28754;47.700;7.924;2023-07-29T01:44:28;17.80;99.90
42615;DHT22;28754;47.700;7.924;2023-07-29T01:47:16;17.80;99.90
42615;DHT22;28754;47.700;7.924;2023-07-29T01:50:03;17.90;99.90
42615;DHT22;28754;47.700;7.924;2023-07-29T01:52:50;17.90;99.90
42615;DHT22;28754;47.700;7.924;2023-07-29T01:55:38;18.00;99.90
42615;DHT22;28754;47.700;7.924;2023-07-29T01:58:25;18.00;99.90
42615;DHT22;28754;47.700;7.924;2023-07-29T02:01:12;18.00;99.90
42615;DHT22;28754;47.700;7.924;2023-07-29T02:04:05;18.00;99.90
42615;DHT22;28754;47.700;7.924;2023-07-29T02:06:51;17.90;99.90
42615;DHT22;28754;47.700;7.924;2023-07-29T02:09:38;18.00;99.90
42615;DHT22;28754;47.700;7.924;2023-07-29T02:12:25;18.00;99.90
42615;DHT22;28754;47.700;7.924;2023-07-29T02:15:11;18.00;99.90
42615;DHT22;28754;47.700;7.924;2023-07-29T02:17:58;18.00;99.90
42615;DHT22;28754;47.700;7.924;2023-07-29T02:20:45;18.00;99.90
42615;DHT22;28754;47.700;7.924;2023-07-29T02:23:35;18.10;99.90
42615;DHT22;28754;47.700;7.924;2023-07-29T02:26:23;18.10;99.90
42615;DHT22;28754;47.700;7.924;2023-07-29T02:29:09;18.10;99.90
42615;DHT22;28754;47.700;7.924;2023-07-29T02:31:56;18.20;99.90
42615;DHT22;28754;47.700;7.924;2023-07-29T02:34:43;18.10;99.90
42615;DHT22;28754;47.700;7.924;2023-07-29T02:37:29;18.20;99.90
42615;DHT22;28754;47.700;7.924;2023-07-29T02:40:16;18.10;99.90
42615;DHT22;28754;47.700;7.924;2023-07-29T02:43:03;18.10;99.90
42615;DHT22;28754;47.700;7.924;2023-07-29T02:45:49;18.10;99.90
42615;DHT22;28754;47.700;7.924;2023-07-29T02:48:36;18.00;99.90
42615;DHT22;28754;47.700;7.924;2023-07-29T02:51:23;18.00;99.90
42615;DHT22;28754;47.700;7.924;2023-07-29T02:54:10;18.00;99.90
42615;DHT22;28754;47.700;7.924;2023-07-29T02:56:56;17.90;99.90
42615;DHT22;28754;47.700;7.924;2023-07-29T02:59:44;17.90;99.90
42615;DHT22;28754;47.700;7.924;2023-07-29T03:02:31;17.80;99.90
42615;DHT22;28754;47.700;7.924;2023-07-29T03:05:18;17.80;99.90
42615;DHT22;28754;47.700;7.924;2023-07-29T03:08:05;17.80;99.90
42615;DHT22;28754;47.700;7.924;2023-07-29T03:10:52;17.80;99.90
42615;DHT22;28754;47.700;7.924;2023-07-29T03:13:39;17.70;99.90
42615;DHT22;28754;47.700;7.924;2023-07-29T03:16:25;17.80;99.90
42615;DHT22;28754;47.700;7.924;2023-07-29T03:19:15;17.80;99.90
42615;DHT22;28754;47.700;7.924;2023-07-29T03:22:02;17.80;99.90
42615;DHT22;28754;47.700;7.924;2023-07-29T03:24:49;17.80;99.90
42615;DHT22;28754;47.700;7.924;2023-07-29T03:27:36;17.80;99.90
42615;DHT22;28754;47.700;7.924;2023-07-29T03:30:23;17.80;99.90
42615;DHT22;28754;47.700;7.924;2023-07-29T03:33:10;17.70;99.90
42615;DHT22;28754;47.700;7.924;2023-07-29T03:35:58;17.70;99.90
42615;DHT22;28754;47.700;7.924;2023-07-29T03:38:45;17.70;99.90
42615;DHT22;28754;47.700;7.924;2023-07-29T03:41:32;17.70;99.90
42615;DHT22;28754;47.700;7.924;2023-07-29T03:44:18;17.80;99.90
42615;DHT22;28754;47.700;7.924;2023-07-29T03:47:06;17.80;99.90
42615;DHT22;28754;47.700;7.924;2023-07-29T03:49:53;17.80;99.90
42615;DHT22;28754;47.700;7.924;2023-07-29T03:52:42;17.90;99.90
42615;DHT22;28754;47.700;7.924;2023-07-29T03:55:29;17.90;99.90
42615;DHT22;28754;47.700;7.924;2023-07-29T03:58:16;17.80;99.90
42615;DHT22;28754;47.700;7.924;2023-07-29T04:01:06;17.70;99.90
42615;DHT22;28754;47.700;7.924;2023-07-29T04:03:56;17.80;99.90
42615;DHT22;28754;47.700;7.924;2023-07-29T04:06:43;17.80;99.90
42615;DHT22;28754;47.700;7.924;2023-07-29T04:09:29;17.80;99.90
42615;DHT22;28754;47.700;7.924;2023-07-29T04:12:16;17.90;99.90
42615;DHT22;28754;47.700;7.924;2023-07-29T04:15:05;17.90;99.90
42615;DHT22;28754;47.700;7.924;2023-07-29T04:17:53;18.00;99.90
42615;DHT22;28754;47.700;7.924;2023-07-29T04:20:39;18.00;99.90
42615;DHT22;28754;47.700;7.924;2023-07-29T04:23:26;18.00;99.90
42615;DHT22;28754;47.700;7.924;2023-07-29T04:26:13;18.00;99.90
42615;DHT22;28754;47.700;7.924;2023-07-29T04:29:00;18.00;99.90
42615;DHT22;28754;47.700;7.924;2023-07-29T04:31:46;18.00;99.90
42615;DHT22;28754;47.700;7.924;2023-07-29T04:34:34;18.10;99.90
42615;DHT22;28754;47.700;7.924;2023-07-29T04:37:21;18.10;99.90
42615;DHT22;28754;47.700;7.924;2023-07-29T04:40:08;18.20;99.90
42615;DHT22;28754;47.700;7.924;2023-07-29T04:42:55;18.20;99.90
42615;DHT22;28754;47.700;7.924;2023-07-29T04:45:44;18.20;99.90
42615;DHT22;28754;47.700;7.924;2023-07-29T04:48:32;18.20;99.90
42615;DHT22;28754;47.700;7.924;2023-07-29T04:51:18;18.20;99.90
42615;DHT22;28754;47.700;7.924;2023-07-29T04:54:05;18.20;99.90
42615;DHT22;28754;47.700;7.924;2023-07-29T04:56:51;18.30;99.90
42615;DHT22;28754;47.700;7.924;2023-07-29T04:59:38;18.30;99.90
42615;DHT22;28754;47.700;7.924;2023-07-29T05:02:25;18.30;99.90
42615;DHT22;28754;47.700;7.924;2023-07-29T05:05:12;18.30;99.90
42615;DHT22;28754;47.700;7.924;2023-07-29T05:07:58;18.30;99.90
42615;DHT22;28754;47.700;7.924;2023-07-29T05:10:48;18.20;99.90
42615;DHT22;28754;47.700;7.924;2023-07-29T05:13:36;18.30;99.90
42615;DHT22;28754;47.700;7.924;2023-07-29T05:16:24;18.30;99.90
42615;DHT22;28754;47.700;7.924;2023-07-29T05:19:11;18.40;99.90
42615;DHT22;28754;47.700;7.924;2023-07-29T05:21:58;18.40;99.90
42615;DHT22;28754;47.700;7.924;2023-07-29T05:24:44;18.40;99.90
42615;DHT22;28754;47.700;7.924;2023-07-29T05:27:31;18.40;99.90
42615;DHT22;28754;47.700;7.924;2023-07-29T05:30:18;18.50;99.90
42615;DHT22;28754;47.700;7.924;2023-07-29T05:33:05;18.50;99.90
42615;DHT22;28754;47.700;7.924;2023-07-29T05:35:51;18.70;99.90
42615;DHT22;28754;47.700;7.924;2023-07-29T05:38:38;18.90;99.90
42615;DHT22;28754;47.700;7.924;2023-07-29T05:41:25;19.00;99.90
42615;DHT22;28754;47.700;7.924;2023-07-29T05:44:14;19.30;99.90
42615;DHT22;28754;47.700;7.924;2023-07-29T05:47:01;19.40;99.90
42615;DHT22;28754;47.700;7.924;2023-07-29T05:49:48;19.30;99.90
42615;DHT22;28754;47.700;7.924;2023-07-29T05:52:35;19.20;99.90
42615;DHT22;28754;47.700;7.924;2023-07-29T05:55:21;19.10;99.90
42615;DHT22;28754;47.700;7.924;2023-07-29T05:58:08;18.90;99.90
42615;DHT22;28754;47.700;7.924;2023-07-29T06:00:55;18.80;99.90
42615;DHT22;28754;47.700;7.924;2023-07-29T06:03:42;18.80;99.90
42615;DHT22;28754;47.700;7.924;2023-07-29T06:06:29;18.70;99.90
42615;DHT22;28754;47.700;7.924;2023-07-29T06:09:16;18.80;99.90
42615;DHT22;28754;47.700;7.924;2023-07-29T06:12:03;18.90;99.90
42615;DHT22;28754;47.700;7.924;2023-07-29T06:14:50;19.10;99.90
42615;DHT22;28754;47.700;7.924;2023-07-29T06:17:37;19.10;99.90
42615;DHT22;28754;47.700;7.924;2023-07-29T06:20:24;19.20;99.90
42615;DHT22;28754;47.700;7.924;2023-07-29T06:23:11;19.10;99.90
42615;DHT22;28754;47.700;7.924;2023-07-29T06:25:58;19.00;99.90
42615;DHT22;28754;47.700;7.924;2023-07-29T06:28:45;19.20;99.90
42615;DHT22;28754;47.700;7.924;2023-07-29T06:31:32;19.30;99.90
42615;DHT22;28754;47.700;7.924;2023-07-29T06:34:19;19.50;99.90
42615;DHT22;28754;47.700;7.924;2023-07-29T06:37:06;19.70;99.90
42615;DHT22;28754;47.700;7.924;2023-07-29T06:39:52;20.00;99.90
42615;DHT22;28754;47.700;7.924;2023-07-29T06:42:39;20.10;99.90
42615;DHT22;28754;47.700;7.924;2023-07-29T06:45:26;20.00;99.90
42615;DHT22;28754;47.700;7.924;2023-07-29T06:48:13;20.10;99.90
42615;DHT22;28754;47.700;7.924;2023-07-29T06:50:59;20.10;99.90
42615;DHT22;28754;47.700;7.924;2023-07-29T06:53:47;20.00;99.90
42615;DHT22;28754;47.700;7.924;2023-07-29T06:56:33;19.80;99.90
42615;DHT22;28754;47.700;7.924;2023-07-29T06:59:20;20.10;99.90
42615;DHT22;28754;47.700;7.924;2023-07-29T07:02:07;20.30;99.90
42615;DHT22;28754;47.700;7.924;2023-07-29T07:04:54;20.40;99.90
42615;DHT22;28754;47.700;7.924;2023-07-29T07:07:40;20.40;99.90
42615;DHT22;28754;47.700;7.924;2023-07-29T07:10:27;20.30;99.90
42615;DHT22;28754;47.700;7.924;2023-07-29T07:13:14;20.40;99.90
42615;DHT22;28754;47.700;7.924;2023-07-29T07:16:00;20.50;99.90
42615;DHT22;28754;47.700;7.924;2023-07-29T07:18:47;20.60;99.90
42615;DHT22;28754;47.700;7.924;2023-07-29T07:21:34;20.60;99.90
42615;DHT22;28754;47.700;7.924;2023-07-29T07:24:21;20.00;99.90
42615;DHT22;28754;47.700;7.924;2023-07-29T07:27:08;19.60;99.90
42615;DHT22;28754;47.700;7.924;2023-07-29T07:29:54;19.70;99.90
42615;DHT22;28754;47.700;7.924;2023-07-29T07:32:41;19.60;99.90
42615;DHT22;28754;47.700;7.924;2023-07-29T07:35:28;19.60;99.90
42615;DHT22;28754;47.700;7.924;2023-07-29T07:38:14;19.50;99.90
42615;DHT22;28754;47.700;7.924;2023-07-29T07:41:01;19.30;99.90
42615;DHT22;28754;47.700;7.924;2023-07-29T07:43:48;19.30;99.90
42615;DHT22;28754;47.700;7.924;2023-07-29T07:46:34;19.20;99.90
42615;DHT22;28754;47.700;7.924;2023-07-29T07:49:22;18.80;99.90
42615;DHT22;28754;47.700;7.924;2023-07-29T07:52:09;19.00;99.90
42615;DHT22;28754;47.700;7.924;2023-07-29T07:54:55;19.10;99.90
42615;DHT22;28754;47.700;7.924;2023-07-29T07:57:42;19.00;99.90
42615;DHT22;28754;47.700;7.924;2023-07-29T08:00:29;19.10;99.90
42615;DHT22;28754;47.700;7.924;2023-07-29T08:03:15;19.50;99.90
42615;DHT22;28754;47.700;7.924;2023-07-29T08:06:04;20.10;99.90
42615;DHT22;28754;47.700;7.924;2023-07-29T08:08:50;20.00;99.90
42615;DHT22;28754;47.700;7.924;2023-07-29T08:11:37;19.90;99.90
42615;DHT22;28754;47.700;7.924;2023-07-29T08:14:24;19.70;99.90
42615;DHT22;28754;47.700;7.924;2023-07-29T08:17:10;19.50;99.90
42615;DHT22;28754;47.700;7.924;2023-07-29T08:19:57;19.50;99.90
42615;DHT22;28754;47.700;7.924;2023-07-29T08:22:44;19.80;99.90
42615;DHT22;28754;47.700;7.924;2023-07-29T08:25:30;19.80;99.90
42615;DHT22;28754;47.700;7.924;2023-07-29T08:28:17;20.00;99.90
42615;DHT22;28754;47.700;7.924;2023-07-29T08:31:04;20.10;99.90
42615;DHT22;28754;47.700;7.924;2023-07-29T08:33:51;20.10;99.90
42615;DHT22;28754;47.700;7.924;2023-07-29T08:36:38;20.40;99.90
42615;DHT22;28754;47.700;7.924;2023-07-29T08:39:25;21.30;99.90
42615;DHT22;28754;47.700;7.924;2023-07-29T08:42:11;21.90;99.90
42615;DHT22;28754;47.700;7.924;2023-07-29T08:45:07;22.00;99.90
42615;DHT22;28754;47.700;7.924;2023-07-29T08:47:57;22.30;99.90
42615;DHT22;28754;47.700;7.924;2023-07-29T08:50:45;22.00;99.90
42615;DHT22;28754;47.700;7.924;2023-07-29T08:53:33;21.80;99.90
42615;DHT22;28754;47.700;7.924;2023-07-29T08:56:20;21.60;99.90
42615;DHT22;28754;47.700;7.924;2023-07-29T08:59:40;21.80;99.90
42615;DHT22;28754;47.700;7.924;2023-07-29T09:02:27;21.20;99.90
42615;DHT22;28754;47.700;7.924;2023-07-29T09:05:14;21.00;99.90
42615;DHT22;28754;47.700;7.924;2023-07-29T09:08:02;21.30;99.90
42615;DHT22;28754;47.700;7.924;2023-07-29T09:10:49;21.60;99.90
42615;DHT22;28754;47.700;7.924;2023-07-29T09:13:36;21.30;99.90
42615;DHT22;28754;47.700;7.924;2023-07-29T09:16:24;21.20;99.90
42615;DHT22;28754;47.700;7.924;2023-07-29T09:19:11;21.30;99.90
42615;DHT22;28754;47.700;7.924;2023-07-29T09:21:58;21.50;99.90
42615;DHT22;28754;47.700;7.924;2023-07-29T09:24:46;21.60;99.90
42615;DHT22;28754;47.700;7.924;2023-07-29T09:27:33;21.20;99.90
42615;DHT22;28754;47.700;7.924;2023-07-29T09:30:24;21.20;99.90
42615;DHT22;28754;47.700;7.924;2023-07-29T09:33:11;21.30;99.90
42615;DHT22;28754;47.700;7.924;2023-07-29T09:35:58;21.90;99.90
42615;DHT22;28754;47.700;7.924;2023-07-29T09:38:45;22.50;99.90
42615;DHT22;28754;47.700;7.924;2023-07-29T09:41:32;23.00;99.90
42615;DHT22;28754;47.700;7.924;2023-07-29T09:44:18;22.80;99.90
42615;DHT22;28754;47.700;7.924;2023-07-29T09:47:05;22.90;99.90
42615;DHT22;28754;47.700;7.924;2023-07-29T09:49:52;22.70;99.90
42615;DHT22;28754;47.700;7.924;2023-07-29T09:52:39;22.60;99.90
42615;DHT22;28754;47.700;7.924;2023-07-29T09:55:27;22.30;99.90
42615;DHT22;28754;47.700;7.924;2023-07-29T09:58:14;22.30;99.90
42615;DHT22;28754;47.700;7.924;2023-07-29T10:01:12;22.20;99.90
42615;DHT22;28754;47.700;7.924;2023-07-29T10:04:00;22.10;99.90
42615;DHT22;28754;47.700;7.924;2023-07-29T10:06:48;22.80;99.90
42615;DHT22;28754;47.700;7.924;2023-07-29T10:09:36;23.20;99.90
42615;DHT22;28754;47.700;7.924;2023-07-29T10:12:25;23.40;99.90
42615;DHT22;28754;47.700;7.924;2023-07-29T10:15:12;24.00;99.90
42615;DHT22;28754;47.700;7.924;2023-07-29T10:18:01;23.90;99.90
42615;DHT22;28754;47.700;7.924;2023-07-29T10:20:51;23.40;99.90
42615;DHT22;28754;47.700;7.924;2023-07-29T10:23:43;23.40;99.90
42615;DHT22;28754;47.700;7.924;2023-07-29T10:26:37;23.30;99.90
42615;DHT22;28754;47.700;7.924;2023-07-29T10:29:31;22.70;99.90
42615;DHT22;28754;47.700;7.924;2023-07-29T10:32:23;23.40;99.90
42615;DHT22;28754;47.700;7.924;2023-07-29T10:35:13;23.10;99.90
42615;DHT22;28754;47.700;7.924;2023-07-29T10:38:02;22.90;99.90
42615;DHT22;28754;47.700;7.924;2023-07-29T10:40:54;22.80;99.90
42615;DHT22;28754;47.700;7.924;2023-07-29T10:43:47;22.80;99.90
42615;DHT22;28754;47.700;7.924;2023-07-29T10:46:35;22.70;99.90
42615;DHT22;28754;47.700;7.924;2023-07-29T10:49:23;23.10;99.90
42615;DHT22;28754;47.700;7.924;2023-07-29T10:52:27;23.50;99.90
42615;DHT22;28754;47.700;7.924;2023-07-29T10:55:35;23.90;99.90
42615;DHT22;28754;47.700;7.924;2023-07-29T10:58:23;23.90;99.90
42615;DHT22;28754;47.700;7.924;2023-07-29T11:01:13;23.80;99.90
42615;DHT22;28754;47.700;7.924;2023-07-29T11:10:03;23.50;99.90
42615;DHT22;28754;47.700;7.924;2023-07-29T11:12:53;24.00;99.90
42615;DHT22;28754;47.700;7.924;2023-07-29T11:15:40;23.80;99.90
42615;DHT22;28754;47.700;7.924;2023-07-29T11:18:35;24.20;99.90
42615;DHT22;28754;47.700;7.924;2023-07-29T11:21:23;24.40;99.90
42615;DHT22;28754;47.700;7.924;2023-07-29T11:24:17;24.30;99.90
42615;DHT22;28754;47.700;7.924;2023-07-29T11:27:05;24.20;99.90
42615;DHT22;28754;47.700;7.924;2023-07-29T11:30:00;24.10;99.90
42615;DHT22;28754;47.700;7.924;2023-07-29T11:32:48;24.30;99.90
42615;DHT22;28754;47.700;7.924;2023-07-29T11:35:35;24.10;99.90
42615;DHT22;28754;47.700;7.924;2023-07-29T11:38:22;24.20;99.90
42615;DHT22;28754;47.700;7.924;2023-07-29T11:41:10;23.90;99.90
42615;DHT22;28754;47.700;7.924;2023-07-29T11:43:56;23.60;99.90
42615;DHT22;28754;47.700;7.924;2023-07-29T11:46:43;23.60;99.90
42615;DHT22;28754;47.700;7.924;2023-07-29T11:49:30;23.60;99.90
42615;DHT22;28754;47.700;7.924;2023-07-29T11:52:19;23.50;99.90
42615;DHT22;28754;47.700;7.924;2023-07-29T11:55:06;23.40;99.90
42615;DHT22;28754;47.700;7.924;2023-07-29T11:57:53;23.40;99.90
42615;DHT22;28754;47.700;7.924;2023-07-29T12:00:41;23.10;99.90
42615;DHT22;28754;47.700;7.924;2023-07-29T12:03:28;23.00;99.90
42615;DHT22;28754;47.700;7.924;2023-07-29T12:06:15;23.00;99.90
42615;DHT22;28754;47.700;7.924;2023-07-29T12:09:03;23.00;99.90
42615;DHT22;28754;47.700;7.924;2023-07-29T12:11:49;23.00;99.90
42615;DHT22;28754;47.700;7.924;2023-07-29T12:14:37;23.10;99.90
42615;DHT22;28754;47.700;7.924;2023-07-29T12:17:23;23.00;99.90
42615;DHT22;28754;47.700;7.924;2023-07-29T12:20:10;23.00;99.90
42615;DHT22;28754;47.700;7.924;2023-07-29T12:22:59;23.10;99.90
42615;DHT22;28754;47.700;7.924;2023-07-29T12:26:00;23.20;99.90
42615;DHT22;28754;47.700;7.924;2023-07-29T12:28:47;23.00;99.90
42615;DHT22;28754;47.700;7.924;2023-07-29T12:31:37;23.30;99.90
42615;DHT22;28754;47.700;7.924;2023-07-29T12:34:26;23.40;99.90
42615;DHT22;28754;47.700;7.924;2023-07-29T12:37:14;23.30;99.90
42615;DHT22;28754;47.700;7.924;2023-07-29T12:40:02;22.90;99.90
42615;DHT22;28754;47.700;7.924;2023-07-29T12:42:50;22.60;99.90
42615;DHT22;28754;47.700;7.924;2023-07-29T12:45:37;22.50;99.90
42615;DHT22;28754;47.700;7.924;2023-07-29T12:48:26;22.60;99.90
42615;DHT22;28754;47.700;7.924;2023-07-29T12:51:12;22.70;99.90
42615;DHT22;28754;47.700;7.924;2023-07-29T12:53:59;22.60;99.90
42615;DHT22;28754;47.700;7.924;2023-07-29T12:56:46;22.40;99.90
42615;DHT22;28754;47.700;7.924;2023-07-29T12:59:33;22.20;99.90
42615;DHT22;28754;47.700;7.924;2023-07-29T13:02:19;21.90;99.90
42615;DHT22;28754;47.700;7.924;2023-07-29T13:05:11;21.90;99.90
42615;DHT22;28754;47.700;7.924;2023-07-29T13:07:58;21.80;99.90
42615;DHT22;28754;47.700;7.924;2023-07-29T13:10:45;21.60;99.90
42615;DHT22;28754;47.700;7.924;2023-07-29T13:13:32;21.40;99.90
42615;DHT22;28754;47.700;7.924;2023-07-29T13:16:18;21.30;99.90
42615;DHT22;28754;47.700;7.924;2023-07-29T13:19:05;21.30;99.90
42615;DHT22;28754;47.700;7.924;2023-07-29T13:21:52;21.10;99.90
42615;DHT22;28754;47.700;7.924;2023-07-29T13:24:38;21.10;99.90
42615;DHT22;28754;47.700;7.924;2023-07-29T13:27:25;21.20;99.90
42615;DHT22;28754;47.700;7.924;2023-07-29T13:30:13;21.30;99.90
42615;DHT22;28754;47.700;7.924;2023-07-29T13:32:59;21.20;99.90
42615;DHT22;28754;47.700;7.924;2023-07-29T13:35:46;21.20;99.90
42615;DHT22;28754;47.700;7.924;2023-07-29T13:38:33;21.20;99.90
42615;DHT22;28754;47.700;7.924;2023-07-29T13:41:19;21.20;99.90
42615;DHT22;28754;47.700;7.924;2023-07-29T13:44:06;21.30;99.90
42615;DHT22;28754;47.700;7.924;2023-07-29T13:46:53;21.30;99.90
42615;DHT22;28754;47.700;7.924;2023-07-29T13:49:39;21.10;99.90
42615;DHT22;28754;47.700;7.924;2023-07-29T13:52:26;21.00;99.90
42615;DHT22;28754;47.700;7.924;2023-07-29T13:55:13;20.80;99.90
42615;DHT22;28754;47.700;7.924;2023-07-29T13:57:59;20.70;99.90
42615;DHT22;28754;47.700;7.924;2023-07-29T14:00:46;20.70;99.90
42615;DHT22;28754;47.700;7.924;2023-07-29T14:03:33;20.60;99.90
42615;DHT22;28754;47.700;7.924;2023-07-29T14:06:19;20.60;99.90
42615;DHT22;28754;47.700;7.924;2023-07-29T14:09:06;20.50;99.90
42615;DHT22;28754;47.700;7.924;2023-07-29T14:11:56;20.30;99.90
42615;DHT22;28754;47.700;7.924;2023-07-29T14:15:14;19.90;99.90
42615;DHT22;28754;47.700;7.924;2023-07-29T14:18:03;19.20;99.90
42615;DHT22;28754;47.700;7.924;2023-07-29T14:20:56;19.30;99.90
42615;DHT22;28754;47.700;7.924;2023-07-29T14:24:32;19.40;99.90
42615;DHT22;28754;47.700;7.924;2023-07-29T14:27:22;19.20;99.90
42615;DHT22;28754;47.700;7.924;2023-07-29T14:30:09;19.00;99.90
42615;DHT22;28754;47.700;7.924;2023-07-29T14:32:56;19.20;99.90
42615;DHT22;28754;47.700;7.924;2023-07-29T14:35:44;19.40;99.90
42615;DHT22;28754;47.700;7.924;2023-07-29T14:38:31;19.20;99.90
42615;DHT22;28754;47.700;7.924;2023-07-29T14:41:18;19.50;99.90
42615;DHT22;28754;47.700;7.924;2023-07-29T14:44:05;19.70;99.90
42615;DHT22;28754;47.700;7.924;2023-07-29T14:46:51;19.70;99.90
42615;DHT22;28754;47.700;7.924;2023-07-29T14:49:38;19.70;99.90
42615;DHT22;28754;47.700;7.924;2023-07-29T14:52:30;19.50;99.90
42615;DHT22;28754;47.700;7.924;2023-07-29T16:15:36;19.50;99.90
42615;DHT22;28754;47.700;7.924;2023-07-29T16:33:07;19.90;99.90
42615;DHT22;28754;47.700;7.924;2023-07-29T16:50:00;20.10;99.90
42615;DHT22;28754;47.700;7.924;2023-07-29T16:52:53;20.10;99.90
42615;DHT22;28754;47.700;7.924;2023-07-29T16:55:53;19.90;99.90
42615;DHT22;28754;47.700;7.924;2023-07-29T16:58:57;20.00;99.90
42615;DHT22;28754;47.700;7.924;2023-07-29T17:02:09;19.70;99.90
42615;DHT22;28754;47.700;7.924;2023-07-29T17:05:10;19.60;99.90
42615;DHT22;28754;47.700;7.924;2023-07-29T17:08:05;19.60;99.90
42615;DHT22;28754;47.700;7.924;2023-07-29T17:15:19;19.70;99.90
42615;DHT22;28754;47.700;7.924;2023-07-29T17:18:27;19.50;99.90
42615;DHT22;28754;47.700;7.924;2023-07-29T17:21:21;19.40;99.90
42615;DHT22;28754;47.700;7.924;2023-07-29T17:24:23;19.10;99.90
42615;DHT22;28754;47.700;7.924;2023-07-29T17:27:52;19.00;99.90
42615;DHT22;28754;47.700;7.924;2023-07-29T17:35:35;19.10;99.90
42615;DHT22;28754;47.700;7.924;2023-07-29T17:39:53;18.80;99.90
42615;DHT22;28754;47.700;7.924;2023-07-29T17:43:39;18.70;99.90
42615;DHT22;28754;47.700;7.924;2023-07-29T17:46:44;18.70;99.90
42615;DHT22;28754;47.700;7.924;2023-07-29T17:49:45;18.70;99.90
42615;DHT22;28754;47.700;7.924;2023-07-29T17:52:42;18.90;99.90
42615;DHT22;28754;47.700;7.924;2023-07-29T17:55:55;19.00;99.90
42615;DHT22;28754;47.700;7.924;2023-07-29T17:58:44;19.00;99.90
42615;DHT22;28754;47.700;7.924;2023-07-29T18:01:40;19.00;99.90
42615;DHT22;28754;47.700;7.924;2023-07-29T18:04:45;18.80;99.90
42615;DHT22;28754;47.700;7.924;2023-07-29T18:07:43;18.70;99.90
42615;DHT22;28754;47.700;7.924;2023-07-29T18:10:30;18.90;99.90
42615;DHT22;28754;47.700;7.924;2023-07-29T18:13:17;18.80;99.90
42615;DHT22;28754;47.700;7.924;2023-07-29T18:16:04;19.00;99.90
42615;DHT22;28754;47.700;7.924;2023-07-29T18:18:53;18.70;99.90
42615;DHT22;28754;47.700;7.924;2023-07-29T18:21:45;18.60;99.90
42615;DHT22;28754;47.700;7.924;2023-07-29T18:43:12;18.80;99.90
42615;DHT22;28754;47.700;7.924;2023-07-29T18:46:22;18.80;99.90
42615;DHT22;28754;47.700;7.924;2023-07-29T18:49:29;18.80;99.90
42615;DHT22;28754;47.700;7.924;2023-07-29T18:57:52;18.70;99.90
42615;DHT22;28754;47.700;7.924;2023-07-29T19:01:06;18.70;99.90
42615;DHT22;28754;47.700;7.924;2023-07-29T19:04:13;18.80;99.90
42615;DHT22;28754;47.700;7.924;2023-07-29T19:12:27;18.90;99.90
42615;DHT22;28754;47.700;7.924;2023-07-29T19:20:20;18.80;99.90
42615;DHT22;28754;47.700;7.924;2023-07-29T19:23:09;18.80;99.90
42615;DHT22;28754;47.700;7.924;2023-07-29T19:26:29;18.80;99.90
42615;DHT22;28754;47.700;7.924;2023-07-29T19:35:09;18.80;99.90
42615;DHT22;28754;47.700;7.924;2023-07-29T19:37:59;18.70;99.90
42615;DHT22;28754;47.700;7.924;2023-07-29T19:53:16;18.30;99.90
42615;DHT22;28754;47.700;7.924;2023-07-29T19:57:36;18.40;99.90
42615;DHT22;28754;47.700;7.924;2023-07-29T20:06:08;18.50;99.90
42615;DHT22;28754;47.700;7.924;2023-07-29T20:08:55;18.50;99.90
42615;DHT22;28754;47.700;7.924;2023-07-29T20:11:43;18.50;99.90
42615;DHT22;28754;47.700;7.924;2023-07-29T20:14:29;18.50;99.90
42615;DHT22;28754;47.700;7.924;2023-07-29T20:17:16;18.50;99.90
42615;DHT22;28754;47.700;7.924;2023-07-29T20:20:03;18.50;99.90
42615;DHT22;28754;47.700;7.924;2023-07-29T20:42:24;17.70;99.90
42615;DHT22;28754;47.700;7.924;2023-07-29T20:50:40;17.70;99.90
42615;DHT22;28754;47.700;7.924;2023-07-29T21:37:48;17.70;99.90
42615;DHT22;28754;47.700;7.924;2023-07-29T21:40:35;17.70;99.90
42615;DHT22;28754;47.700;7.924;2023-07-29T21:43:22;17.80;99.90
42615;DHT22;28754;47.700;7.924;2023-07-29T21:46:09;17.80;99.90
42615;DHT22;28754;47.700;7.924;2023-07-29T21:48:55;17.70;99.90
42615;DHT22;28754;47.700;7.924;2023-07-29T21:51:42;17.80;99.90
42615;DHT22;28754;47.700;7.924;2023-07-29T21:54:29;17.70;99.90
42615;DHT22;28754;47.700;7.924;2023-07-29T21:57:15;17.70;99.90
42615;DHT22;28754;47.700;7.924;2023-07-29T22:00:04;17.80;99.90
42615;DHT22;28754;47.700;7.924;2023-07-29T22:02:53;17.90;99.90
42615;DHT22;28754;47.700;7.924;2023-07-29T22:05:41;17.80;99.90
42615;DHT22;28754;47.700;7.924;2023-07-29T22:08:27;17.80;99.90
42615;DHT22;28754;47.700;7.924;2023-07-29T22:11:14;17.90;99.90